Flight Track Log - Related Links

Times and Time Zones

All times are in EDT time to prevent confusion due to time zone crossing. See the SWA803 flight status page for this flight to view local times or setup timezone preferences in your user account.

Time Position Orientation Groundspeed Altitude Reporting Facility
EDT Latitude Longitude Course Direction KTS MPH feet Rate Location/Type
Mon 07:02:00 PM 35.5834 -110.9497 97° East  Level Estimated
Mon 07:03:00 PM 35.5614 -110.7891 100° East  Level Estimated
Mon 07:04:00 PM 35.5392 -110.6287 100° East  Level Estimated
Mon 07:05:00 PM 35.5168 -110.4683 100° East  Level Estimated
Mon 07:06:00 PM 35.4941 -110.3081 100° East  Level Estimated
Mon 07:07:00 PM 35.4713 -110.1479 100° East  Level Estimated
Mon 07:08:00 PM 35.4481 -109.9866 100° East  Level Estimated
Mon 07:09:00 PM 35.4246 -109.8255 100° East  Level Estimated
Mon 07:10:00 PM 35.4009 -109.6644 100° East  Level Estimated
Mon 07:11:00 PM 35.3771 -109.5035 100° East  Level Estimated
Mon 07:12:00 PM 35.3530 -109.3426 100° East  Level Estimated
Mon 07:13:00 PM 35.3287 -109.1818 100° East  Level Estimated
Mon 07:14:00 PM 35.3041 -109.0212 101° East  Level Estimated
Mon 07:15:00 PM 35.2794 -108.8606 101° East  Level Estimated
Mon 07:16:00 PM 35.2546 -108.7009 101° East  Level Estimated
Mon 07:17:00 PM 35.2296 -108.5413 101° East  Level Estimated
Mon 07:18:00 PM 35.2043 -108.3818 101° East  Level Estimated
Mon 07:19:00 PM 35.1789 -108.2224 101° East  Level Estimated
Mon 07:20:00 PM 35.1532 -108.0631 101° East  Level Estimated
Mon 07:21:00 PM 35.1270 -107.9018 101° East  Level Estimated
Mon 07:22:00 PM 35.1006 -107.7406 101° East  Level Estimated
Mon 07:23:00 PM 35.0740 -107.5795 101° East  Level Estimated
Mon 07:24:00 PM 35.0471 -107.4185 101° East  Level Estimated
Mon 07:25:00 PM 35.0201 -107.2577 102° East  Level Estimated
Mon 07:26:00 PM 34.9928 -107.0969 102° East  Level Estimated
Mon 07:27:00 PM 34.9653 -106.9362 102° East  Level Estimated
Mon 07:28:00 PM 34.9376 -106.7757 102° East  Level Estimated
Mon 07:29:00 PM 34.9097 -106.6152 102° East  Level Estimated
Mon 07:30:00 PM 34.8816 -106.4549 102° East  Level Estimated
Mon 07:31:00 PM 34.8533 -106.2947 102° East  Level Estimated
Mon 07:32:00 PM 34.8247 -106.1346 102° East  Level Estimated
Mon 07:33:00 PM 34.7960 -105.9745 102° East  Level Estimated
Mon 07:34:00 PM 34.7670 -105.8147 102° East  Level Estimated
Mon 07:35:00 PM 34.7379 -105.6549 102° East  Level Estimated
Mon 07:36:00 PM 34.7085 -105.4952 103° East  Level Estimated
Mon 07:37:00 PM 34.6789 -105.3357 103° East  Level Estimated
Mon 07:38:00 PM 34.6491 -105.1762 103° East  Level Estimated
Mon 07:39:00 PM 34.6191 -105.0169 103° East  Level Estimated
Mon 07:40:00 PM 34.5890 -104.8577 103° East  Level Estimated
Mon 07:41:00 PM 34.5585 -104.6986 103° East  Level Estimated
Mon 07:42:00 PM 34.5279 -104.5396 103° East  Level Estimated
Mon 07:43:00 PM 34.4971 -104.3808 103° East  Level Estimated
Mon 07:44:00 PM 34.4661 -104.2220 103° East  Level Estimated
Mon 07:45:00 PM 34.4348 -104.0634 103° East  Level Estimated
Mon 07:46:00 PM 34.4034 -103.9049 103° East  Level Estimated
Mon 07:47:00 PM 34.3718 -103.7465 104° East  Level Estimated
Mon 07:48:00 PM 34.3399 -103.5883 104° East  Level Estimated
Mon 07:49:00 PM 34.3079 -103.4301 104° East  Level Estimated
Mon 07:50:00 PM 34.2756 -103.2721 104° East  Level Estimated
Mon 07:51:00 PM 34.2432 -103.1142 104° East  Level Estimated
Mon 07:52:00 PM 34.2105 -102.9564 104° East  Level Estimated
Mon 07:53:00 PM 34.1777 -102.7988 104° East  Level Estimated
Mon 07:54:00 PM 34.1446 -102.6413 104° East  Level Estimated
Mon 07:55:00 PM 34.1113 -102.4836 104° East  Level Estimated
Mon 07:56:00 PM 34.0779 -102.3267 104° East  Level Estimated
Mon 07:57:00 PM 34.0443 -102.1699 104° East  Level Estimated
Mon 07:58:00 PM 34.0106 -102.0133 105° East  Level Estimated
Mon 07:59:00 PM 33.9766 -101.8568 105° East  Level Estimated
Mon 08:00:00 PM 33.9424 -101.7004 105° East  Level Estimated
Mon 08:01:00 PM 33.9081 -101.5441 105° East  Level Estimated
Mon 08:02:00 PM 33.8735 -101.3879 105° East  Level Estimated
Mon 08:03:00 PM 33.8387 -101.2319 105° East  Level Estimated
Mon 08:04:00 PM 33.8038 -101.0760 105° East  Level Estimated
Mon 08:05:00 PM 33.7685 -100.9197 105° East  Level Estimated
Mon 08:06:00 PM 33.7330 -100.7635 105° East  Level Estimated
Mon 08:07:00 PM 33.6973 -100.6075 105° East  Level Estimated
Mon 08:08:00 PM 33.6615 -100.4516 105° East  Level Estimated
Mon 08:09:00 PM 33.6254 -100.2958 105° East  Level Estimated
Mon 08:10:00 PM 33.5891 -100.1401 106° East  Level Estimated
Mon 08:11:00 PM 33.5527 -99.9846 106° East  Level Estimated
Mon 08:12:00 PM 33.5160 -99.8292 106° East  Level Estimated
Mon 08:13:00 PM 33.4792 -99.6739 106° East  Level Estimated
Mon 08:14:00 PM 33.4422 -99.5188 106° East  Level Estimated
Mon 08:15:00 PM 33.4049 -99.3638 106° East  Level Estimated
Mon 08:16:00 PM 33.3675 -99.2089 106° East  Level Estimated
Mon 08:17:00 PM 33.3299 -99.0542 106° East  Level Estimated
Mon 08:18:00 PM 33.2921 -98.8996 106° East  Level Estimated
Mon 08:19:00 PM 33.2541 -98.7451 106° East  Level Estimated
Mon 08:20:00 PM 33.2159 -98.5908 106° East  Level Estimated
Mon 08:21:00 PM 33.1775 -98.4366 107° East  Level Estimated
Mon 08:22:00 PM 33.1390 -98.2825 107° East  Level Estimated
Mon 08:23:00 PM 33.1002 -98.1286 107° East  Level Estimated
Mon 08:24:00 PM 33.0612 -97.9748 107° East  Level Estimated
Mon 08:25:00 PM 33.0221 -97.8212 107° East  Level Estimated
Mon 08:26:00 PM 32.9828 -97.6676 107° East  Level Estimated
Mon 08:27:00 PM 32.9433 -97.5143 107° East  Level Estimated
Mon 08:28:00 PM 32.9036 -97.3610 107° East  Level Estimated
Mon 08:29:00 PM 32.8637 -97.2079 107° East  Level Estimated
Mon 08:30:00 PM 32.8236 -97.0549 107° East  Level Estimated
Mon 08:31:00 PM 32.7834 -96.9021 107° East  Level Estimated
Mon 08:32:00 PM 32.7429 -96.7494 107° East  Level Estimated
Mon 08:33:00 PM 32.7023 -96.5969 108° East  Level Estimated
Mon 08:34:00 PM 32.6615 -96.4445 108° East  Level Estimated
Mon 08:35:00 PM 32.6205 -96.2922 108° East  Level Estimated
Mon 08:36:00 PM 32.5793 -96.1401 108° East  Level Estimated
Mon 08:37:00 PM 32.5379 -95.9881 108° East  Level Estimated
Mon 08:38:00 PM 32.4964 -95.8362 108° East  Level Estimated
Mon 08:39:00 PM 32.4547 -95.6845 108° East  Level Estimated
Mon 08:40:00 PM 32.4128 -95.5329 108° East  Level Estimated
Mon 08:41:00 PM 32.3707 -95.3815 108° East  Level Estimated
Mon 08:42:00 PM 32.3284 -95.2302 108° East  Level Estimated
Mon 08:43:00 PM 32.2860 -95.0791 108° East  Level Estimated
Mon 08:44:00 PM 32.2433 -94.9280 108° East  Level Estimated
Mon 08:45:00 PM 32.2005 -94.7772 109° East  Level Estimated
Mon 08:46:00 PM 32.1575 -94.6265 109° East  Level Estimated
Mon 08:47:00 PM 32.1144 -94.4759 109° East  Level Estimated
Mon 08:48:00 PM 32.0710 -94.3254 109° East  Level Estimated
Mon 08:49:00 PM 32.0275 -94.1752 109° East  Level Estimated
Mon 08:50:00 PM 31.9838 -94.0250 109° East  Level Estimated
Mon 08:51:00 PM 31.9399 -93.8750 109° East  Level Estimated
Mon 08:52:00 PM 31.8959 -93.7251 109° East  Level Estimated
Mon 08:53:00 PM 31.8516 -93.5754 109° East  Level Estimated
Mon 08:54:00 PM 31.8072 -93.4258 109° East  Level Estimated
Mon 08:55:00 PM 31.7626 -93.2764 109° East  Level Estimated
Mon 08:56:00 PM 31.7179 -93.1271 109° East  Level Estimated
Mon 08:57:00 PM 31.6730 -92.9780 109° East  Level Estimated
Mon 08:58:00 PM 31.6279 -92.8290 110° East  Level Estimated
Mon 08:59:00 PM 31.5826 -92.6801 110° East  Level Estimated
Mon 09:00:00 PM 31.5371 -92.5314 110° East  Level Estimated
Mon 09:01:00 PM 31.4915 -92.3828 110° East  Level Estimated
Mon 09:02:00 PM 31.4457 -92.2344 110° East  Level Estimated
Mon 09:03:00 PM 31.3998 -92.0861 110° East  Level Estimated
Mon 09:04:00 PM 31.3536 -91.9380 110° East  Level Estimated
Mon 09:05:00 PM 31.3074 -91.7900 110° East  Level Estimated
Mon 09:06:00 PM 31.2609 -91.6422 110° East  Level Estimated
Mon 09:07:00 PM 31.2142 -91.4945 110° East  Level Estimated
Mon 09:08:00 PM 31.1674 -91.3469 110° East  Level Estimated
Mon 09:09:00 PM 31.1204 -91.1995 110° East  Level Estimated
Mon 09:10:00 PM 31.0733 -91.0523 110° East  Level Estimated
Mon 09:11:00 PM 31.0260 -90.9052 111° Southeast  Level Estimated
Mon 09:12:00 PM 30.9785 -90.7582 111° Southeast  Level Estimated
Mon 09:13:00 PM 30.9309 -90.6114 111° Southeast  Level Estimated
Mon 09:14:00 PM 30.8831 -90.4647 111° Southeast  Level Estimated
Mon 09:15:00 PM 30.8351 -90.3182 111° Southeast  Level Estimated
Mon 09:16:00 PM 30.7870 -90.1718 111° Southeast  Level Estimated
Mon 09:17:00 PM 30.7387 -90.0256 111° Southeast  Level Estimated
Mon 09:18:00 PM 30.6902 -89.8795 111° Southeast  Level Estimated
Mon 09:19:00 PM 30.6416 -89.7336 111° Southeast  Level Estimated
Mon 09:20:00 PM 30.5928 -89.5878 111° Southeast  Level Estimated
Mon 09:21:00 PM 30.5438 -89.4422 111° Southeast  Level Estimated
Mon 09:22:00 PM 30.4947 -89.2967 111° Southeast  Level Estimated
Mon 09:23:00 PM 30.4454 -89.1513 111° Southeast  Level Estimated
Mon 09:24:00 PM 30.3960 -89.0061 112° Southeast  Level Estimated
Mon 09:25:00 PM 30.3464 -88.8611 112° Southeast  Level Estimated
Mon 09:26:00 PM 30.2968 -88.7166 112° Southeast  Level Estimated
Mon 09:27:00 PM 30.2470 -88.5724 112° Southeast  Level Estimated
Mon 09:28:00 PM 30.1971 -88.4282 112° Southeast  Level Estimated
Mon 09:29:00 PM 30.1471 -88.2842 112° Southeast  Level Estimated
Mon 09:30:00 PM 30.0969 -88.1407 112° Southeast  Level Estimated
Mon 09:31:00 PM 30.0467 -87.9974 112° Southeast  Level Estimated
Mon 09:32:00 PM 29.9963 -87.8541 112° Southeast  Level Estimated
Mon 09:33:00 PM 29.9457 -87.7111 112° Southeast  Level Estimated
Mon 09:34:00 PM 29.8948 -87.5677 112° Southeast  Level Estimated
Mon 09:35:00 PM 29.8438 -87.4246 112° Southeast  Level Estimated
Mon 09:36:00 PM 29.7926 -87.2815 112° Southeast  Level Estimated
Mon 09:37:00 PM 29.7412 -87.1386 112° Southeast  Level Estimated
Mon 09:38:00 PM 29.6898 -86.9959 113° Southeast  Level Estimated
Mon 09:39:00 PM 29.6381 -86.8533 113° Southeast  Level Estimated
Mon 09:40:00 PM 29.5863 -86.7108 113° Southeast  Level Estimated
Mon 09:41:00 PM 29.5344 -86.5685 113° Southeast  Level Estimated
Mon 09:42:00 PM 29.4823 -86.4263 113° Southeast  Level Estimated
Mon 09:43:00 PM 29.4300 -86.2843 113° Southeast  Level Estimated
Mon 09:44:00 PM 29.3776 -86.1424 113° Southeast  Level Estimated
Mon 09:45:00 PM 29.3251 -86.0007 113° Southeast  Level Estimated
Mon 09:46:00 PM 29.2724 -85.8591 113° Southeast  Level Estimated
Mon 09:47:00 PM 29.2195 -85.7177 113° Southeast  Level Estimated
Mon 09:48:00 PM 29.1665 -85.5764 113° Southeast  Level Estimated
Mon 09:49:00 PM 29.1134 -85.4353 113° Southeast  Level Estimated
Mon 09:50:00 PM 29.0601 -85.2943 113° Southeast  Level Estimated
Mon 09:51:00 PM 29.0067 -85.1535 113° Southeast  Level Estimated
Mon 09:52:00 PM 28.9530 -85.0127 113° Southeast  Level Estimated
Mon 09:53:00 PM 28.8993 -84.8721 114° Southeast  Level Estimated
Mon 09:54:00 PM 28.8454 -84.7316 114° Southeast  Level Estimated
Mon 09:55:00 PM 28.7913 -84.5912 114° Southeast  Level Estimated
Mon 09:56:00 PM 28.7371 -84.4510 114° Southeast  Level Estimated
Mon 09:57:00 PM 28.6828 -84.3110 114° Southeast  Level Estimated
Mon 09:57:23 PM 27.9139 -84.0942 114° Southeast 508 585 24,400  Level Miami Center
Mon 09:58:00 PM 28.6278 -84.1698 114° Southeast  Level Estimated
Mon 09:58:25 PM 27.9153 -83.9442 89° East 493 567 22,100  Level Miami Center
Mon 09:59:00 PM 28.5727 -84.0288 114° Southeast  Level Estimated
Mon 09:59:23 PM 27.9119 -83.7983 91° East 475 547 20,000  Level Miami Center
Mon 10:00:00 PM 28.5174 -83.8880 114° Southeast  Level Estimated
Mon 10:01:00 PM 28.4620 -83.7472 114° Southeast  Level Estimated
Mon 10:01:22 PM 27.9125 -83.5214 90° East 446 513 15,700  Level Miami Center
Mon 10:02:00 PM 28.4064 -83.6067 114° Southeast  Level Estimated
Mon 10:02:23 PM 27.9144 -83.3878 89° East 435 501 13,500  Level Miami Center
Mon 10:03:22 PM 27.9119 -83.2586 91° East 422 486 11,400 -1,736 Descending Miami Center
Mon 10:04:24 PM 27.9236 -83.1369 84° East 403 464 10,000 -1,180 Descending Miami Center
Mon 10:05:24 PM 27.9322 -83.0342 85° East 365 420 9,000 -1,240 Descending Miami Center
Mon 10:06:25 PM 27.9217 -82.9397 97° East 326 375 7,500 -1,744 Descending Miami Center
Mon 10:07:21 PM 27.9000 -82.8333 103° East 305 351 5,600 -1,707 Descending Tampa TRACON
Mon 10:08:21 PM 27.8833 -82.7500 103° East 299 344 4,200 -1,211 Descending Tampa TRACON
Mon 10:09:15 PM 27.8500 -82.6667 114° Southeast 280 322 3,300 -600 Descending Tampa TRACON
Mon 10:10:21 PM 27.8167 -82.6000 119° Southeast 239 275 3,000 -333 Descending Tampa TRACON
Mon 10:11:21 PM 27.8333 -82.5500 69° East 179 206 2,600 -500 Descending Tampa TRACON
Mon 10:12:21 PM 27.8667 -82.5500 360° North 140 161 2,000 -744 Descending Tampa TRACON
Mon 10:13:22 PM 27.9167 -82.5500 360° North 147 169 1,100 -843 Descending Tampa TRACON
Mon 10:14:22 PM 27.9500 -82.5500 360° North 145 167 300 -800 Descending Tampa TRACON
Mon 10:16:00 PM 27.9667 -82.5167 19° North  Level FlightAware Approximate
Mon 10:23:00 PM 27.9755 -82.5332 19° North  Level Estimated

Login

Don't have an account? Register now (free) for customized features, flight alerts, and more!